Time;durP1;ratioP1;P1;durP2;ratioP2;P2;SDS_P1;SDS_P2;PMS_P1;PMS_P2;Temp;Humidity;BMP_temperature;BMP_pressure;BME280_temperature;BME280_humidity;BME280_pressure;Samples;Min_cycle;Max_cycle;Signal;HPM_P1;HPM_P2
2023/08/07 00:00:09;;;;;;;;;;;;;;;16.87;79.10;99814.41;4185290;28;19959;-70
2023/08/07 00:02:11;;;;;;;;;;;;;;;16.80;79.14;99794.59;4203195;28;20627;-70
2023/08/07 00:04:13;;;;;;;;;;;;;;;16.80;79.36;99810.94;4202521;28;20024;-69
2023/08/07 00:06:15;;;;;;;;;;;;;;;16.78;79.85;99815.00;4202434;28;20019;-70
2023/08/07 00:08:17;;;;;;;;;;;;;;;16.74;79.95;99809.22;4201935;28;20383;-70
2023/08/07 00:10:19;;;;;;;;;;;;;;;16.72;79.90;99809.44;4200971;28;20011;-70
2023/08/07 00:12:20;;;;;;;;;;;;;;;16.70;80.23;99806.13;4202361;28;20358;-69
2023/08/07 00:14:24;;;;;;;;;;;;;;;16.66;80.07;99801.38;4203440;28;19939;-70
2023/08/07 00:16:26;;;;;;;;;;;;;;;16.66;80.40;99807.69;4203085;28;20019;-70
2023/08/07 00:18:27;;;;;;;;;;;;;;;16.63;80.48;99808.16;4184924;28;20383;-70
2023/08/07 00:20:29;;;;;;;;;;;;;;;16.62;80.35;99797.50;4184015;28;20056;-70
2023/08/07 00:22:31;;;;;;;;;;;;;;;16.57;80.59;99795.50;4201817;28;19931;-70
2023/08/07 00:24:33;;;;;;;;;;;;;;;16.54;80.34;99785.06;4202471;28;20027;-70
2023/08/07 00:26:35;;;;;;;;;;;;;;;16.55;80.86;99784.81;4202177;28;20028;-70
2023/08/07 00:28:37;;;;;;;;;;;;;;;16.53;80.53;99781.50;4201533;28;20063;-70
2023/08/07 00:30:40;;;;;;;;;;;;;;;16.54;80.54;99777.69;4202599;28;20330;-69
2023/08/07 00:32:42;;;;;;;;;;;;;;;16.55;80.76;99779.38;4202869;28;20012;-70
2023/08/07 00:34:44;;;;;;;;;;;;;;;16.53;80.58;99786.94;4204760;28;20023;-70
2023/08/07 00:36:46;;;;;;;;;;;;;;;16.53;80.77;99786.94;4170548;28;19976;-70
2023/08/07 00:38:48;;;;;;;;;;;;;;;16.49;80.45;99785.78;4171204;28;20011;-70
2023/08/07 00:40:50;;;;;;;;;;;;;;;16.48;80.67;99784.13;4205265;28;20030;-70
2023/08/07 00:42:51;;;;;;;;;;;;;;;16.44;80.91;99782.94;4185774;28;20465;-70
2023/08/07 00:44:56;;;;;;;;;;;;;;;16.42;81.07;99787.78;4206185;28;19940;-70
2023/08/07 00:46:59;;;;;;;;;;;;;;;16.40;81.30;99782.59;4187389;28;20386;-69
2023/08/07 00:49:02;;;;;;;;;;;;;;;16.41;81.35;99783.44;4205266;28;20094;-70
2023/08/07 00:51:07;;;;;;;;;;;;;;;16.43;81.19;99784.00;4205714;28;20417;-70
2023/08/07 00:53:09;;;;;;;;;;;;;;;16.45;81.36;99783.78;4205817;28;20011;-70
2023/08/07 00:55:11;;;;;;;;;;;;;;;16.47;81.54;99787.91;4171198;28;20067;-70
2023/08/07 00:57:15;;;;;;;;;;;;;;;16.50;81.35;99794.78;4187322;28;20015;-70
2023/08/07 00:59:16;;;;;;;;;;;;;;;16.49;81.33;99793.09;4204035;28;20054;-70
2023/08/07 01:01:18;;;;;;;;;;;;;;;16.48;81.29;99794.19;4187617;28;20023;-70
2023/08/07 01:03:23;;;;;;;;;;;;;;;16.47;81.06;99790.63;4204409;28;19924;-70
2023/08/07 01:05:25;;;;;;;;;;;;;;;16.46;81.52;99799.06;4204815;28;20007;-70
2023/08/07 01:07:27;;;;;;;;;;;;;;;16.47;81.59;99790.63;4204911;28;20015;-70
2023/08/07 01:09:29;;;;;;;;;;;;;;;16.45;81.53;99784.59;4186924;28;20028;-70
2023/08/07 01:11:34;;;;;;;;;;;;;;;16.45;81.66;99790.03;4204444;28;20035;-70
2023/08/07 01:13:38;;;;;;;;;;;;;;;16.45;81.72;99783.78;4204221;28;20044;-70
2023/08/07 01:15:40;;;;;;;;;;;;;;;16.44;81.81;99787.56;4205243;28;20023;-70
2023/08/07 01:17:42;;;;;;;;;;;;;;;16.44;81.61;99773.94;4186127;28;19928;-70
2023/08/07 01:19:46;;;;;;;;;;;;;;;16.45;81.72;99781.88;4204913;28;20019;-70
2023/08/07 01:21:50;;;;;;;;;;;;;;;16.44;81.75;99784.81;4186905;28;20020;-70
2023/08/07 01:23:52;;;;;;;;;;;;;;;16.44;81.82;99779.38;4203807;28;19928;-70
2023/08/07 01:25:54;;;;;;;;;;;;;;;16.44;81.82;99782.94;4186838;28;20324;-70
2023/08/07 01:28:06;;;;;;;;;;;;;;;16.46;81.65;99777.25;4187538;28;20040;-70
2023/08/07 01:30:10;;;;;;;;;;;;;;;16.44;81.91;99777.50;4185455;28;20039;-70
2023/08/07 01:32:12;;;;;;;;;;;;;;;16.43;82.04;99778.56;4204872;28;20011;-70
2023/08/07 01:34:14;;;;;;;;;;;;;;;16.41;82.42;99767.09;4204375;28;20023;-70
2023/08/07 01:36:16;;;;;;;;;;;;;;;16.38;82.59;99765.66;4204655;28;20014;-70
2023/08/07 01:38:20;;;;;;;;;;;;;;;16.33;82.76;99765.53;4186172;28;20015;-70
2023/08/07 01:40:21;;;;;;;;;;;;;;;16.33;82.97;99761.97;4202427;28;20019;-70
2023/08/07 01:42:23;;;;;;;;;;;;;;;16.31;83.38;99759.50;4204852;28;20024;-70
2023/08/07 01:44:25;;;;;;;;;;;;;;;16.28;83.48;99761.88;4187292;28;19954;-70
2023/08/07 01:46:27;;;;;;;;;;;;;;;16.26;83.38;99759.38;4203154;28;20014;-69
2023/08/07 01:48:28;;;;;;;;;;;;;;;16.25;83.56;99756.91;4204607;28;20377;-70
2023/08/07 01:50:31;;;;;;;;;;;;;;;16.21;83.99;99754.66;4202642;28;20362;-70
2023/08/07 01:52:34;;;;;;;;;;;;;;;16.19;84.41;99747.78;4161059;28;20342;-69
2023/08/07 01:54:37;;;;;;;;;;;;;;;16.18;84.67;99754.31;4204256;28;20358;-69
2023/08/07 01:56:39;;;;;;;;;;;;;;;16.17;84.26;99750.72;4204215;28;20019;-69
2023/08/07 01:58:42;;;;;;;;;;;;;;;16.14;84.60;99751.22;4187179;28;20081;-69
2023/08/07 02:00:44;;;;;;;;;;;;;;;16.12;84.67;99753.34;4186285;28;20063;-69
2023/08/07 02:02:46;;;;;;;;;;;;;;;16.09;84.96;99755.72;4185691;28;20019;-69
2023/08/07 02:04:48;;;;;;;;;;;;;;;16.06;84.78;99745.31;4185965;28;20430;-70
2023/08/07 02:06:50;;;;;;;;;;;;;;;16.04;84.75;99749.09;4185700;28;20055;-70
2023/08/07 02:08:52;;;;;;;;;;;;;;;16.01;85.20;99746.84;4184357;28;20387;-70
2023/08/07 02:10:55;;;;;;;;;;;;;;;15.98;85.40;99746.50;4201757;28;19932;-70
2023/08/07 02:12:58;;;;;;;;;;;;;;;15.97;85.00;99750.28;4169224;28;19932;-70
2023/08/07 02:15:00;;;;;;;;;;;;;;;15.97;84.89;99762.00;4166111;28;20020;-70
2023/08/07 02:17:02;;;;;;;;;;;;;;;15.96;85.27;99760.34;4187680;28;20032;-70
2023/08/07 02:19:04;;;;;;;;;;;;;;;15.94;85.25;99762.47;4186521;28;20016;-71
2023/08/07 02:21:06;;;;;;;;;;;;;;;15.94;85.08;99769.81;4186124;28;20023;-70
2023/08/07 02:23:08;;;;;;;;;;;;;;;15.93;85.17;99769.00;4186744;28;20019;-70
2023/08/07 02:25:10;;;;;;;;;;;;;;;15.94;85.17;99775.25;4187516;28;20346;-70
2023/08/07 02:27:14;;;;;;;;;;;;;;;15.93;84.97;99774.44;4185055;28;20020;-71
2023/08/07 02:29:17;;;;;;;;;;;;;;;15.91;85.26;99775.72;4186319;28;20135;-71
2023/08/07 02:31:19;;;;;;;;;;;;;;;15.90;85.59;99774.09;4187734;28;20016;-70
2023/08/07 02:33:21;;;;;;;;;;;;;;;15.89;85.43;99778.69;4202576;28;20092;-70
2023/08/07 02:35:23;;;;;;;;;;;;;;;15.88;85.53;99778.91;4186489;28;20011;-70
2023/08/07 02:37:26;;;;;;;;;;;;;;;15.88;85.45;99781.63;4187424;28;20425;-70
2023/08/07 02:39:28;;;;;;;;;;;;;;;15.87;85.42;99780.81;4186752;28;20016;-71
2023/08/07 02:41:31;;;;;;;;;;;;;;;15.86;85.79;99787.31;4187147;28;20365;-70
2023/08/07 02:43:34;;;;;;;;;;;;;;;15.85;85.62;99785.69;4186768;28;20043;-70
2023/08/07 02:45:36;;;;;;;;;;;;;;;15.83;85.92;99785.06;4201761;28;19927;-71
2023/08/07 02:47:38;;;;;;;;;;;;;;;15.79;86.47;99789.34;4187182;28;20011;-71
2023/08/07 02:49:40;;;;;;;;;;;;;;;15.77;86.56;99795.03;4186115;28;20015;-70
2023/08/07 02:51:42;;;;;;;;;;;;;;;15.79;86.62;99792.06;4185496;28;20331;-70
2023/08/07 02:53:43;;;;;;;;;;;;;;;15.80;86.49;99791.81;4168814;28;20405;-70
2023/08/07 02:55:45;;;;;;;;;;;;;;;15.82;86.02;99792.41;4185453;28;19932;-70
2023/08/07 02:57:47;;;;;;;;;;;;;;;15.83;86.53;99796.81;4185281;28;20017;-70
2023/08/07 02:59:51;;;;;;;;;;;;;;;15.82;86.90;99797.84;4185503;28;20023;-70
2023/08/07 03:01:53;;;;;;;;;;;;;;;15.80;87.03;99789.09;4184488;28;20031;-70
2023/08/07 03:03:54;;;;;;;;;;;;;;;15.80;87.00;99791.00;4187132;28;20012;-70
2023/08/07 03:05:55;;;;;;;;;;;;;;;15.83;86.54;99794.09;4186148;28;19939;-71
2023/08/07 03:07:57;;;;;;;;;;;;;;;15.85;86.57;99791.94;4184419;28;20023;-70
2023/08/07 03:09:59;;;;;;;;;;;;;;;15.86;86.68;99795.50;4184317;28;20018;-70
2023/08/07 03:12:03;;;;;;;;;;;;;;;15.85;87.23;99791.13;4186776;28;20023;-71
2023/08/07 03:14:05;;;;;;;;;;;;;;;15.83;87.36;99793.22;4169666;28;20040;-70
2023/08/07 03:16:08;;;;;;;;;;;;;;;15.83;87.73;99787.78;4187377;28;20377;-70
2023/08/07 03:18:09;;;;;;;;;;;;;;;15.84;87.37;99789.47;4187204;28;20015;-70
2023/08/07 03:20:12;;;;;;;;;;;;;;;15.88;86.89;99792.53;4183734;28;20023;-70
2023/08/07 03:22:14;;;;;;;;;;;;;;;15.90;86.80;99784.97;4185934;28;20434;-70
2023/08/07 03:24:16;;;;;;;;;;;;;;;15.91;86.72;99786.63;4185500;28;20027;-70
2023/08/07 03:26:18;;;;;;;;;;;;;;;15.92;86.98;99796.44;4166409;28;19925;-70
2023/08/07 03:28:20;;;;;;;;;;;;;;;15.92;87.19;99793.72;4168014;28;20020;-71
2023/08/07 03:30:22;;;;;;;;;;;;;;;15.92;86.67;99791.00;4184688;28;20388;-70
2023/08/07 03:32:25;;;;;;;;;;;;;;;15.92;86.96;99789.09;4186674;28;20047;-71
2023/08/07 03:34:27;;;;;;;;;;;;;;;15.93;87.40;99798.13;4186441;28;20020;-70
2023/08/07 03:36:29;;;;;;;;;;;;;;;15.95;87.22;99804.16;4168421;28;20011;-71
2023/08/07 03:38:31;;;;;;;;;;;;;;;15.94;87.38;99797.03;4168022;28;20591;-71
2023/08/07 03:40:34;;;;;;;;;;;;;;;15.95;87.28;99798.69;4184853;28;20027;-71
2023/08/07 03:42:37;;;;;;;;;;;;;;;15.95;87.43;99801.44;4185095;28;20027;-71
2023/08/07 03:44:40;;;;;;;;;;;;;;;15.94;87.39;99811.50;4186428;28;20035;-71
2023/08/07 03:46:42;;;;;;;;;;;;;;;15.96;87.44;99800.38;4168560;28;19925;-70
2023/08/07 03:48:46;;;;;;;;;;;;;;;15.96;87.05;99811.25;4165625;28;20021;-71
2023/08/07 03:50:49;;;;;;;;;;;;;;;15.98;86.75;99800.97;4150366;28;20367;-70
2023/08/07 03:52:52;;;;;;;;;;;;;;;15.99;87.10;99805.34;4168568;28;20024;-70
2023/08/07 03:54:55;;;;;;;;;;;;;;;15.99;86.87;99795.28;4169411;28;20047;-70
2023/08/07 03:56:57;;;;;;;;;;;;;;;15.98;87.11;99806.41;4185783;28;20367;-70
2023/08/07 03:58:59;;;;;;;;;;;;;;;15.97;87.64;99802.00;4186580;28;20034;-71
2023/08/07 04:01:01;;;;;;;;;;;;;;;15.96;88.04;99805.81;4184487;28;20015;-71
2023/08/07 04:03:03;;;;;;;;;;;;;;;15.96;87.27;99806.63;4184985;28;20016;-71
2023/08/07 04:05:06;;;;;;;;;;;;;;;15.98;87.37;99803.69;4184061;28;20416;-71
2023/08/07 04:07:08;;;;;;;;;;;;;;;15.99;87.20;99798.00;4181464;28;20024;-71
2023/08/07 04:09:10;;;;;;;;;;;;;;;15.96;88.01;99798.47;4185769;28;20347;-70
2023/08/07 04:11:12;;;;;;;;;;;;;;;15.96;88.37;99795.75;4186939;28;20024;-71
2023/08/07 04:13:14;;;;;;;;;;;;;;;15.95;88.73;99807.69;4189577;28;20007;-71
2023/08/07 04:15:16;;;;;;;;;;;;;;;15.94;88.81;99806.06;4189470;28;20027;-71
2023/08/07 04:17:18;;;;;;;;;;;;;;;15.94;88.81;99803.34;4188125;28;20015;-71
2023/08/07 04:19:20;;;;;;;;;;;;;;;15.95;88.46;99804.16;4189307;28;20037;-71
2023/08/07 04:21:24;;;;;;;;;;;;;;;15.93;88.80;99801.66;4185616;28;20091;-71
2023/08/07 04:23:26;;;;;;;;;;;;;;;15.93;89.27;99798.13;4188518;28;20015;-71
2023/08/07 04:25:27;;;;;;;;;;;;;;;15.91;89.04;99790.19;4188040;28;20019;-71
2023/08/07 04:27:29;;;;;;;;;;;;;;;15.92;88.79;99794.53;4186412;28;19932;-70
2023/08/07 04:29:31;;;;;;;;;;;;;;;15.94;88.34;99799.75;4188639;28;20390;-70
2023/08/07 04:31:33;;;;;;;;;;;;;;;15.93;88.54;99804.38;4186587;28;20111;-71
2023/08/07 04:33:36;;;;;;;;;;;;;;;15.95;88.54;99798.69;4189065;28;20023;-70
2023/08/07 04:35:38;;;;;;;;;;;;;;;15.95;88.08;99804.97;4188762;28;20027;-70
2023/08/07 04:37:41;;;;;;;;;;;;;;;15.93;88.30;99804.38;4189019;28;20027;-71
2023/08/07 04:39:43;;;;;;;;;;;;;;;15.93;88.22;99804.38;4188422;28;20023;-72
2023/08/07 04:41:44;;;;;;;;;;;;;;;15.93;88.09;99804.38;4188627;28;20023;-71
2023/08/07 04:43:48;;;;;;;;;;;;;;;15.92;88.24;99802.72;4188308;28;19971;-72
2023/08/07 04:45:50;;;;;;;;;;;;;;;15.95;87.79;99815.88;4187628;28;20051;-71
2023/08/07 04:47:51;;;;;;;;;;;;;;;15.95;87.63;99810.41;4188497;28;20351;-71
2023/08/07 04:49:53;;;;;;;;;;;;;;;15.93;88.16;99812.56;4187156;28;20018;-71
2023/08/07 04:51:55;;;;;;;;;;;;;;;15.93;88.42;99819.91;4187763;28;20458;-70
2023/08/07 04:53:58;;;;;;;;;;;;;;;15.96;87.86;99827.59;4188445;28;20385;-70
2023/08/07 04:56:00;;;;;;;;;;;;;;;15.96;87.85;99822.16;4188022;28;20364;-70
2023/08/07 04:58:02;;;;;;;;;;;;;;;15.96;87.87;99816.72;4188343;28;20011;-70
2023/08/07 05:00:05;;;;;;;;;;;;;;;15.94;87.93;99825.13;4188548;28;20024;-70
2023/08/07 05:02:07;;;;;;;;;;;;;;;15.94;88.11;99816.09;4187113;28;20031;-70
2023/08/07 05:04:09;;;;;;;;;;;;;;;15.90;88.13;99820.38;4185589;28;20027;-70
2023/08/07 05:06:11;;;;;;;;;;;;;;;15.86;88.45;99811.81;4188142;28;20058;-70
2023/08/07 05:08:13;;;;;;;;;;;;;;;15.87;88.32;99821.66;4198162;28;19928;-70
2023/08/07 05:10:16;;;;;;;;;;;;;;;15.89;87.73;99824.97;4204619;28;20022;-70
2023/08/07 05:12:18;;;;;;;;;;;;;;;15.90;87.76;99817.66;4202974;28;20031;-70
2023/08/07 05:14:20;;;;;;;;;;;;;;;15.90;87.42;99823.91;4204791;28;20036;-70
2023/08/07 05:16:23;;;;;;;;;;;;;;;15.90;87.21;99829.34;4205275;28;20035;-70
2023/08/07 05:18:25;;;;;;;;;;;;;;;15.89;87.54;99832.31;4202905;28;20043;-70
2023/08/07 05:20:27;;;;;;;;;;;;;;;15.88;87.38;99825.19;4203462;28;20011;-71
2023/08/07 05:22:29;;;;;;;;;;;;;;;15.88;87.65;99828.78;4204017;28;20024;-70
2023/08/07 05:24:38;;;;;;;;;;;;;;;15.89;87.30;99832.31;4203297;28;20011;-70
2023/08/07 05:26:41;;;;;;;;;;;;;;;15.91;86.94;99830.19;4203871;28;20367;-70
2023/08/07 05:28:43;;;;;;;;;;;;;;;15.94;86.90;99832.44;4203572;28;19924;-70
2023/08/07 05:30:45;;;;;;;;;;;;;;;15.97;86.63;99834.69;4202328;28;20015;-70
2023/08/07 05:32:47;;;;;;;;;;;;;;;16.00;86.29;99842.38;4204189;28;20023;-70
2023/08/07 05:34:50;;;;;;;;;;;;;;;16.01;86.07;99844.06;4204563;28;20445;-70
2023/08/07 05:36:52;;;;;;;;;;;;;;;16.00;85.96;99850.56;4203493;28;20023;-70
2023/08/07 05:38:54;;;;;;;;;;;;;;;15.99;86.03;99854.38;4204195;28;20035;-70
2023/08/07 05:40:55;;;;;;;;;;;;;;;15.98;85.70;99836.34;4202335;28;20022;-69
2023/08/07 05:42:58;;;;;;;;;;;;;;;15.97;85.33;99849.16;4204430;28;19936;-70
2023/08/07 05:45:00;;;;;;;;;;;;;;;15.95;85.60;99850.44;4202969;28;20027;-70
2023/08/07 05:47:02;;;;;;;;;;;;;;;15.92;85.62;99859.09;4204252;28;20047;-70
2023/08/07 05:49:04;;;;;;;;;;;;;;;15.93;85.85;99868.91;4204181;28;20287;-70
2023/08/07 05:51:06;;;;;;;;;;;;;;;15.91;86.01;99860.13;4185156;28;20405;-70
2023/08/07 05:53:08;;;;;;;;;;;;;;;15.91;86.12;99862.84;4203412;28;20490;-70
2023/08/07 05:55:10;;;;;;;;;;;;;;;15.88;86.02;99866.91;4186287;28;19968;-70
2023/08/07 05:57:12;;;;;;;;;;;;;;;15.88;85.95;99855.16;4204226;28;20011;-70
2023/08/07 05:59:16;;;;;;;;;;;;;;;15.88;86.03;99855.16;4204215;28;20023;-70
2023/08/07 06:01:18;;;;;;;;;;;;;;;15.91;85.56;99862.84;4204570;28;20477;-70
2023/08/07 06:03:20;;;;;;;;;;;;;;;15.91;85.64;99860.97;4204640;28;20406;-70
2023/08/07 06:05:22;;;;;;;;;;;;;;;15.89;85.84;99856.81;4203949;28;20453;-70
2023/08/07 06:07:24;;;;;;;;;;;;;;;15.88;85.63;99847.84;4185977;28;20047;-70
2023/08/07 06:09:26;;;;;;;;;;;;;;;15.91;85.84;99857.41;4203988;28;19932;-70
2023/08/07 06:11:28;;;;;;;;;;;;;;;15.93;85.87;99852.59;4202938;28;20463;-70
2023/08/07 06:13:30;;;;;;;;;;;;;;;15.94;85.89;99855.06;4204312;28;20027;-70
2023/08/07 06:15:34;;;;;;;;;;;;;;;15.95;85.76;99864.06;4203915;28;20376;-70
2023/08/07 06:17:36;;;;;;;;;;;;;;;15.96;85.85;99872.00;4203443;28;20015;-70
2023/08/07 06:19:37;;;;;;;;;;;;;;;15.99;85.68;99868.81;4201513;28;20015;-70
2023/08/07 06:21:39;;;;;;;;;;;;;;;16.01;85.69;99874.84;4202448;28;20024;-69
2023/08/07 06:23:41;;;;;;;;;;;;;;;16.02;86.16;99881.13;4202532;28;20010;-69
2023/08/07 06:25:43;;;;;;;;;;;;;;;16.03;86.37;99880.06;4202755;28;20019;-70
2023/08/07 06:27:45;;;;;;;;;;;;;;;16.03;86.03;99888.22;4203191;28;20015;-70
2023/08/07 06:29:47;;;;;;;;;;;;;;;16.02;85.89;99884.69;4204074;28;19951;-70
2023/08/07 06:31:51;;;;;;;;;;;;;;;16.04;85.84;99888.00;4202902;28;20024;-70
2023/08/07 06:33:53;;;;;;;;;;;;;;;16.07;85.33;99896.78;4203615;28;20019;-70
2023/08/07 06:35:54;;;;;;;;;;;;;;;16.13;85.06;99890.41;4203900;28;20027;-69
2023/08/07 06:37:55;;;;;;;;;;;;;;;16.17;84.87;99900.56;4197970;28;20032;-70
2023/08/07 06:39:57;;;;;;;;;;;;;;;16.19;84.53;99889.44;4200443;28;19928;-70
2023/08/07 06:42:00;;;;;;;;;;;;;;;16.22;83.91;99886.22;4199733;28;20006;-70
2023/08/07 06:44:09;;;;;;;;;;;;;;;16.25;83.89;99904.00;4183002;28;20024;-70
2023/08/07 06:46:11;;;;;;;;;;;;;;;16.30;83.51;99899.53;4202604;28;20018;-70
2023/08/07 06:48:14;;;;;;;;;;;;;;;16.33;82.99;99903.66;4204230;28;20361;-69
2023/08/07 06:50:16;;;;;;;;;;;;;;;16.35;82.39;99902.38;4203245;28;19924;-70
2023/08/07 06:52:18;;;;;;;;;;;;;;;16.38;82.14;99901.91;4203761;28;20027;-70
2023/08/07 06:54:20;;;;;;;;;;;;;;;16.41;81.62;99903.34;4203507;28;20032;-70
2023/08/07 06:56:22;;;;;;;;;;;;;;;16.44;81.55;99889.25;4201383;28;20223;-70
2023/08/07 06:58:24;;;;;;;;;;;;;;;16.48;81.58;99903.22;4202795;28;20015;-69
2023/08/07 07:00:26;;;;;;;;;;;;;;;16.52;81.38;99894.31;4201832;28;20023;-69
2023/08/07 07:02:28;;;;;;;;;;;;;;;16.56;81.25;99895.50;4203476;28;20346;-71
2023/08/07 07:04:32;;;;;;;;;;;;;;;16.60;80.77;99903.19;4203639;28;20019;-71
2023/08/07 07:06:34;;;;;;;;;;;;;;;16.61;80.57;99902.97;4202931;28;20023;-71
2023/08/07 07:08:37;;;;;;;;;;;;;;;16.64;80.33;99907.94;4203506;28;20027;-70
2023/08/07 07:10:41;;;;;;;;;;;;;;;16.68;79.99;99914.59;4202970;28;19928;-70
2023/08/07 07:12:43;;;;;;;;;;;;;;;16.71;80.01;99910.56;4202757;28;20039;-70
2023/08/07 07:14:45;;;;;;;;;;;;;;;16.74;79.63;99913.63;4203012;28;20076;-70
2023/08/07 07:16:47;;;;;;;;;;;;;;;16.80;79.53;99913.75;4185110;28;20553;-70
2023/08/07 07:18:49;;;;;;;;;;;;;;;16.81;79.42;99907.22;4203480;28;20023;-70
2023/08/07 07:20:56;;;;;;;;;;;;;;;16.82;79.19;99906.16;4203322;28;20023;-70
2023/08/07 07:22:59;;;;;;;;;;;;;;;16.84;79.08;99932.13;4201884;28;20016;-70
2023/08/07 07:25:01;;;;;;;;;;;;;;;16.86;78.54;99926.47;4203209;28;20023;-70
2023/08/07 07:27:03;;;;;;;;;;;;;;;16.87;78.61;99925.41;4203072;28;20022;-70
2023/08/07 07:29:05;;;;;;;;;;;;;;;16.90;78.32;99928.47;4202643;28;20658;-70
2023/08/07 07:31:10;;;;;;;;;;;;;;;16.94;78.31;99926.09;4203060;28;19932;-70
2023/08/07 07:33:13;;;;;;;;;;;;;;;16.95;78.00;99932.41;4203583;28;20047;-70
2023/08/07 07:35:15;;;;;;;;;;;;;;;16.97;77.59;99922.88;4203025;28;20507;-70
2023/08/07 07:37:18;;;;;;;;;;;;;;;17.00;77.58;99930.59;4203207;28;20441;-70
2023/08/07 07:39:20;;;;;;;;;;;;;;;17.03;77.35;99924.66;4203150;28;20011;-70
2023/08/07 07:41:23;;;;;;;;;;;;;;;17.04;77.39;99926.31;4202840;28;20015;-70
2023/08/07 07:43:25;;;;;;;;;;;;;;;17.05;77.16;99935.31;4202617;28;20019;-70
2023/08/07 07:45:27;;;;;;;;;;;;;;;17.06;77.24;99942.44;4206074;28;20449;-70
2023/08/07 07:47:29;;;;;;;;;;;;;;;17.08;77.03;99932.13;4206319;28;20023;-70
2023/08/07 07:49:31;;;;;;;;;;;;;;;17.09;77.05;99933.78;4206116;28;20003;-70
2023/08/07 07:51:34;;;;;;;;;;;;;;;17.11;76.62;99943.41;4206410;28;20442;-70
2023/08/07 07:53:37;;;;;;;;;;;;;;;17.14;76.56;99947.53;4206013;28;20442;-70
2023/08/07 07:55:39;;;;;;;;;;;;;;;17.16;76.30;99952.75;4205787;28;20457;-70
2023/08/07 07:57:41;;;;;;;;;;;;;;;17.18;76.25;99953.34;4205652;28;20035;-70
2023/08/07 07:59:43;;;;;;;;;;;;;;;17.18;76.23;99951.47;4206054;28;20011;-70
2023/08/07 08:01:45;;;;;;;;;;;;;;;17.20;75.93;99952.03;4206111;28;20016;-70
2023/08/07 08:03:47;;;;;;;;;;;;;;;17.22;75.81;99959.97;4206076;28;20020;-70
2023/08/07 08:05:50;;;;;;;;;;;;;;;17.23;75.75;99940.63;4206329;28;20018;-70
2023/08/07 08:07:52;;;;;;;;;;;;;;;17.25;75.39;99951.31;4206218;28;19964;-70
2023/08/07 08:09:55;;;;;;;;;;;;;;;17.26;75.18;99951.06;4205987;28;20106;-70
2023/08/07 08:11:57;;;;;;;;;;;;;;;17.29;75.23;99963.41;4206313;28;19932;-70
2023/08/07 08:13:59;;;;;;;;;;;;;;;17.29;74.87;99953.31;4205404;28;20441;-70
2023/08/07 08:16:01;;;;;;;;;;;;;;;17.29;75.06;99966.97;4204764;28;20059;-70
2023/08/07 08:18:03;;;;;;;;;;;;;;;17.28;74.60;99956.28;4205552;28;20027;-70
2023/08/07 08:20:06;;;;;;;;;;;;;;;17.31;74.70;99953.09;4205321;28;20032;-70
2023/08/07 08:22:08;;;;;;;;;;;;;;;17.33;74.83;99955.56;4205590;28;20433;-70
2023/08/07 08:24:10;;;;;;;;;;;;;;;17.34;74.56;99958.06;4205406;28;20019;-70
2023/08/07 08:26:12;;;;;;;;;;;;;;;17.36;74.60;99952.38;4204695;28;20015;-70
2023/08/07 08:28:14;;;;;;;;;;;;;;;17.38;74.52;99955.66;4204073;28;20035;-70
2023/08/07 08:30:16;;;;;;;;;;;;;;;17.39;74.66;99968.25;4204750;28;20023;-70
2023/08/07 08:32:18;;;;;;;;;;;;;;;17.40;74.81;99959.00;4205506;28;20450;-70
2023/08/07 08:34:21;;;;;;;;;;;;;;;17.41;74.60;99964.22;4204560;28;20039;-70
2023/08/07 08:36:23;;;;;;;;;;;;;;;17.42;74.69;99967.78;4205961;28;20019;-70
2023/08/07 08:38:29;;;;;;;;;;;;;;;17.43;74.56;99963.97;4205380;28;20015;-70
2023/08/07 08:40:31;;;;;;;;;;;;;;;17.40;74.61;99959.00;4206012;28;20434;-70
2023/08/07 08:42:34;;;;;;;;;;;;;;;17.40;74.82;99961.75;4203055;28;20031;-70
2023/08/07 08:44:36;;;;;;;;;;;;;;;17.41;74.74;99966.09;4205031;28;20019;-70
2023/08/07 08:46:38;;;;;;;;;;;;;;;17.42;75.03;99974.06;4205711;28;20023;-70
2023/08/07 08:48:40;;;;;;;;;;;;;;;17.45;74.73;99973.56;4205014;28;20020;-70
2023/08/07 08:50:42;;;;;;;;;;;;;;;17.46;74.63;99977.13;4204772;28;20011;-70
2023/08/07 08:52:44;;;;;;;;;;;;;;;17.49;74.72;99979.38;4205532;28;19928;-70
2023/08/07 08:54:46;;;;;;;;;;;;;;;17.51;74.71;99981.84;4204909;28;20007;-70
2023/08/07 08:56:48;;;;;;;;;;;;;;;17.52;74.64;99983.53;4204212;28;20027;-70
2023/08/07 08:58:52;;;;;;;;;;;;;;;17.53;74.62;99977.81;4205540;28;20030;-70
2023/08/07 09:00:54;;;;;;;;;;;;;;;17.55;74.71;99985.78;4204936;28;20044;-71
2023/08/07 09:02:55;;;;;;;;;;;;;;;17.56;74.59;99984.72;4205802;28;20055;-70
2023/08/07 09:04:57;;;;;;;;;;;;;;;17.53;74.74;99986.03;4205506;28;19928;-70
2023/08/07 09:06:59;;;;;;;;;;;;;;;17.53;74.73;99990.66;4205419;28;20111;-70
2023/08/07 09:09:01;;;;;;;;;;;;;;;17.52;74.87;99989.81;4204331;28;20029;-70
2023/08/07 09:11:03;;;;;;;;;;;;;;;17.52;74.84;99984.34;4205066;28;20023;-70
2023/08/07 09:13:06;;;;;;;;;;;;;;;17.53;75.23;99979.75;4205179;28;20485;-70
2023/08/07 09:15:10;;;;;;;;;;;;;;;17.53;74.97;99988.75;4205258;28;20054;-71
2023/08/07 09:17:12;;;;;;;;;;;;;;;17.54;75.19;99973.19;4204777;28;20018;-70
2023/08/07 09:19:14;;;;;;;;;;;;;;;17.54;75.16;99962.28;4205230;28;20011;-70
2023/08/07 09:21:16;;;;;;;;;;;;;;;17.56;75.00;99969.16;4204032;28;20023;-70
2023/08/07 09:23:18;;;;;;;;;;;;;;;17.56;74.91;99966.44;4186955;28;20434;-70
2023/08/07 09:25:26;;;;;;;;;;;;;;;17.57;75.20;99976.28;4187066;28;20361;-70
2023/08/07 09:27:28;;;;;;;;;;;;;;;17.59;75.05;99986.97;4204868;28;20012;-69
2023/08/07 09:29:30;;;;;;;;;;;;;;;17.57;75.80;99984.47;4203762;28;20007;-70
2023/08/07 09:31:33;;;;;;;;;;;;;;;17.51;76.46;99971.78;4205029;28;20119;-69
2023/08/07 09:33:36;;;;;;;;;;;;;;;17.48;77.02;99980.47;4205202;28;20030;-70
2023/08/07 09:35:38;;;;;;;;;;;;;;;17.46;77.68;99991.63;4186987;28;19928;-70
2023/08/07 09:37:40;;;;;;;;;;;;;;;17.43;77.83;99991.28;4205023;28;20007;-69
2023/08/07 09:39:42;;;;;;;;;;;;;;;17.45;77.77;100000.88;4204722;28;20366;-69
2023/08/07 09:41:44;;;;;;;;;;;;;;;17.44;77.82;99990.19;4205332;28;20026;-68
2023/08/07 09:43:46;;;;;;;;;;;;;;;17.43;77.71;99989.38;4204865;28;20030;-70
2023/08/07 09:45:50;;;;;;;;;;;;;;;17.46;77.91;99985.31;4201134;28;20355;-70
2023/08/07 09:47:59;;;;;;;;;;;;;;;17.49;77.48;99993.03;4203955;28;20014;-70
2023/08/07 09:50:01;;;;;;;;;;;;;;;17.51;77.63;100017.34;4204379;28;19952;-70
2023/08/07 09:52:03;;;;;;;;;;;;;;;17.50;77.90;99997.41;4204209;28;20028;-70
2023/08/07 09:54:05;;;;;;;;;;;;;;;17.52;77.79;100000.72;4204152;28;19924;-70
2023/08/07 09:56:07;;;;;;;;;;;;;;;17.55;77.43;99999.44;4203853;28;20018;-70
2023/08/07 09:58:09;;;;;;;;;;;;;;;17.57;77.31;100005.47;4205007;28;20024;-71
2023/08/07 10:00:12;;;;;;;;;;;;;;;17.59;77.04;99995.97;4204248;28;20019;-70
2023/08/07 10:02:14;;;;;;;;;;;;;;;17.60;76.82;100005.84;4203743;28;20023;-70
2023/08/07 10:04:17;;;;;;;;;;;;;;;17.64;76.62;100003.44;4203968;28;20024;-70
2023/08/07 10:06:19;;;;;;;;;;;;;;;17.67;76.58;99996.69;4203350;28;20015;-70
2023/08/07 10:08:22;;;;;;;;;;;;;;;17.67;76.19;100005.69;4204007;28;20469;-68
2023/08/07 10:10:25;;;;;;;;;;;;;;;17.68;76.35;100011.97;4204167;28;20018;-72
2023/08/07 10:12:28;;;;;;;;;;;;;;;17.69;76.07;100010.91;4204232;28;20031;-69
2023/08/07 10:14:33;;;;;;;;;;;;;;;17.71;75.75;100014.22;4204179;28;19928;-69
2023/08/07 10:16:39;;;;;;;;;;;;;;;17.72;75.57;100005.78;4164469;28;20012;-69
2023/08/07 10:18:41;;;;;;;;;;;;;;;17.73;75.41;99999.25;4203038;28;20027;-69
2023/08/07 10:20:44;;;;;;;;;;;;;;;17.75;75.04;100008.03;4202697;28;20015;-69
2023/08/07 10:22:46;;;;;;;;;;;;;;;17.77;74.70;100025.03;4203769;28;20022;-69
2023/08/07 10:24:49;;;;;;;;;;;;;;;17.80;74.39;100007.31;4204083;28;20023;-69
2023/08/07 10:26:51;;;;;;;;;;;;;;;17.81;74.24;100001.59;4186549;28;19960;-69
2023/08/07 10:28:53;;;;;;;;;;;;;;;17.81;73.86;100007.06;4203007;28;20438;-70
2023/08/07 10:30:55;;;;;;;;;;;;;;;17.83;73.75;99998.63;4203489;28;20022;-72
2023/08/07 10:32:57;;;;;;;;;;;;;;;17.84;73.30;100005.75;4204243;28;20018;-70
2023/08/07 10:34:59;;;;;;;;;;;;;;;17.83;73.34;99995.91;4202006;28;20015;-70